Airfield :
LOGIN :

Register | Disclaimer

   EN    FR    IT 

 










Legend :    VFR   Marginal VFR   IFR   Intensive IFR   Very Intensive IFR
Visi :
Ceiling :
>= 8 km
>= 3000ft
5 to 8 km
1000 to 3000 ft
1500m to 5 km
500 to 1000 ft
800 to 1500m
200 to 500 ft
< 800m
< 200 ft
Symbols :   Thunderstorms  Fog  Heavy snow  Heavy precipitations  Wind > 20 kt
SIGMETs :     Misc.  Thunderstorms  Icing  Turbulence  Mountain Waves  Volcanic Ashes







- Airport Elevation : 699 ft
- IATA code : PAD


EDLP - Paderborn Lippstadt

CURRENT METAR :
  • 132250Z 08006KT 9999 FEW018 BKN047 00/M02 Q1021

EXPIRED METARs :
  • 132220Z 08007KT 050V110 9999 BKN016 BKN019 OVC048 01/M02 Q1021
  • 132150Z 08006KT 050V120 9999 BKN018 BKN024 OVC028 01/M02 Q1020
  • 132120Z 08005KT 9999 SCT018 BKN021 00/M01 Q1020
  • 132050Z 06007KT 9999 SCT019 BKN023 00/M02 Q1020
  • 132020Z 06006KT 9999 FEW018 BKN024 00/M02 Q1020

TAF TAF EDLP
Valid from the 13 at 18:00 until the 14 at 18:00 UTC


131700Z 1318/1418 08007KT 9999 BKN025
No reported NOTAMs for that airfield.



MET'MAP, your aeronautical weather chart ! - Copyright ORBIFLY December 2007 - Disclaimer

ORBIFLY MET'MAP TEAM :

Programming & Development : Alexandra Zaïnal
Concept & Development : Baudouin d'Aumeries
Co-Development & Prog : Marc-Olivier Méhu
Technical & hardware support : Manuel Goepfert

Contact : metmap@orbifly.com




SOURCES & CREDITS :

   NOAA